sensor_id;sensor_type;location;lat;lon;timestamp;pressure;altitude;pressure_sealevel;temperature;humidity
30873;BME280;17579;42.690;2.586;2023-05-10T00:01:04;97455.69;;;16.53;47.18
30873;BME280;17579;42.690;2.586;2023-05-10T00:03:39;97459.84;;;16.56;47.02
30873;BME280;17579;42.690;2.586;2023-05-10T00:06:05;97461.53;;;16.57;46.92
30873;BME280;17579;42.690;2.586;2023-05-10T00:08:36;97468.53;;;16.58;46.82
30873;BME280;17579;42.690;2.586;2023-05-10T00:11:21;97452.84;;;16.55;46.95
30873;BME280;17579;42.690;2.586;2023-05-10T00:13:54;97460.84;;;16.55;46.90
30873;BME280;17579;42.690;2.586;2023-05-10T00:16:29;97451.72;;;16.49;47.26
30873;BME280;17579;42.690;2.586;2023-05-10T00:18:55;97450.06;;;16.48;47.15
30873;BME280;17579;42.690;2.586;2023-05-10T00:21:21;97427.69;;;16.49;46.98
30873;BME280;17579;42.690;2.586;2023-05-10T00:23:55;97452.44;;;16.43;46.72
30873;BME280;17579;42.690;2.586;2023-05-10T00:26:24;97455.47;;;16.40;46.89
30873;BME280;17579;42.690;2.586;2023-05-10T00:28:50;97450.47;;;16.37;46.50
30873;BME280;17579;42.690;2.586;2023-05-10T00:31:15;97466.19;;;16.32;46.39
30873;BME280;17579;42.690;2.586;2023-05-10T00:33:41;97472.56;;;16.31;46.50
30873;BME280;17579;42.690;2.586;2023-05-10T00:36:10;97448.69;;;16.29;46.69
30873;BME280;17579;42.690;2.586;2023-05-10T00:38:36;97461.75;;;16.24;46.89
30873;BME280;17579;42.690;2.586;2023-05-10T00:41:07;97457.13;;;16.18;47.32
30873;BME280;17579;42.690;2.586;2023-05-10T00:43:38;97448.78;;;16.13;47.51
30873;BME280;17579;42.690;2.586;2023-05-10T00:46:04;97467.81;;;16.09;47.42
30873;BME280;17579;42.690;2.586;2023-05-10T00:48:34;97467.69;;;16.03;47.84
30873;BME280;17579;42.690;2.586;2023-05-10T00:51:11;97462.53;;;16.01;47.62
30873;BME280;17579;42.690;2.586;2023-05-10T00:53:39;97454.50;;;16.01;47.96
30873;BME280;17579;42.690;2.586;2023-05-10T00:56:12;97461.03;;;15.99;47.96
30873;BME280;17579;42.690;2.586;2023-05-10T00:59:12;97446.22;;;15.96;47.93
30873;BME280;17579;42.690;2.586;2023-05-10T01:01:53;97437.19;;;15.97;48.11
30873;BME280;17579;42.690;2.586;2023-05-10T01:04:32;97431.91;;;15.89;48.00
30873;BME280;17579;42.690;2.586;2023-05-10T01:07:04;97442.25;;;15.92;48.09
30873;BME280;17579;42.690;2.586;2023-05-10T01:09:39;97425.09;;;15.86;48.11
30873;BME280;17579;42.690;2.586;2023-05-10T01:12:07;97438.59;;;15.85;48.00
30873;BME280;17579;42.690;2.586;2023-05-10T01:14:36;97425.28;;;15.85;47.79
30873;BME280;17579;42.690;2.586;2023-05-10T01:17:28;97419.09;;;15.84;47.55
30873;BME280;17579;42.690;2.586;2023-05-10T01:19:54;97413.59;;;15.77;47.50
30873;BME280;17579;42.690;2.586;2023-05-10T01:33:39;97425.00;;;15.63;48.34
30873;BME280;17579;42.690;2.586;2023-05-10T01:36:19;97425.84;;;15.55;48.58
30873;BME280;17579;42.690;2.586;2023-05-10T01:39:11;97417.22;;;15.53;48.21
30873;BME280;17579;42.690;2.586;2023-05-10T01:46:53;97404.06;;;15.44;48.00
30873;BME280;17579;42.690;2.586;2023-05-10T01:49:25;97404.41;;;15.40;47.49
30873;BME280;17579;42.690;2.586;2023-05-10T01:52:00;97385.59;;;15.34;47.93
30873;BME280;17579;42.690;2.586;2023-05-10T01:54:31;97377.63;;;15.34;47.19
30873;BME280;17579;42.690;2.586;2023-05-10T01:57:21;97384.81;;;15.25;47.72
30873;BME280;17579;42.690;2.586;2023-05-10T01:59:57;97378.97;;;15.30;47.36
30873;BME280;17579;42.690;2.586;2023-05-10T02:02:27;97370.31;;;15.28;47.06
30873;BME280;17579;42.690;2.586;2023-05-10T02:04:58;97363.50;;;15.25;46.81
30873;BME280;17579;42.690;2.586;2023-05-10T02:07:28;97356.84;;;15.21;46.65
30873;BME280;17579;42.690;2.586;2023-05-10T02:09:55;97352.50;;;15.20;46.44
30873;BME280;17579;42.690;2.586;2023-05-10T02:12:22;97350.88;;;15.19;45.69
30873;BME280;17579;42.690;2.586;2023-05-10T02:17:47;97333.53;;;15.23;45.18
30873;BME280;17579;42.690;2.586;2023-05-10T02:20:34;97326.53;;;15.22;44.77
30873;BME280;17579;42.690;2.586;2023-05-10T02:23:02;97324.22;;;15.19;44.50
30873;BME280;17579;42.690;2.586;2023-05-10T02:25:32;97311.09;;;15.17;44.83
30873;BME280;17579;42.690;2.586;2023-05-10T02:28:03;97306.75;;;15.16;44.80
30873;BME280;17579;42.690;2.586;2023-05-10T02:30:55;97314.09;;;15.14;44.73
30873;BME280;17579;42.690;2.586;2023-05-10T02:36:20;97293.44;;;15.16;43.88
30873;BME280;17579;42.690;2.586;2023-05-10T02:38:56;97294.41;;;15.15;43.21
30873;BME280;17579;42.690;2.586;2023-05-10T02:41:30;97277.78;;;15.13;43.61
30873;BME280;17579;42.690;2.586;2023-05-10T02:46:50;97281.44;;;15.12;42.34
30873;BME280;17579;42.690;2.586;2023-05-10T02:49:28;97279.97;;;15.10;42.86
30873;BME280;17579;42.690;2.586;2023-05-10T02:52:05;97259.84;;;15.07;43.02
30873;BME280;17579;42.690;2.586;2023-05-10T02:54:44;97261.66;;;15.06;43.05
30873;BME280;17579;42.690;2.586;2023-05-10T02:57:26;97264.84;;;15.02;43.24
30873;BME280;17579;42.690;2.586;2023-05-10T02:59:58;97254.53;;;14.99;43.21
30873;BME280;17579;42.690;2.586;2023-05-10T03:02:34;97247.19;;;15.01;42.93
30873;BME280;17579;42.690;2.586;2023-05-10T03:05:04;97265.56;;;14.96;43.45
30873;BME280;17579;42.690;2.586;2023-05-10T03:07:54;97253.88;;;14.97;43.72
30873;BME280;17579;42.690;2.586;2023-05-10T03:10:30;97245.72;;;14.98;44.03
30873;BME280;17579;42.690;2.586;2023-05-10T03:18:01;97238.06;;;14.95;44.50
30873;BME280;17579;42.690;2.586;2023-05-10T03:20:46;97231.94;;;14.86;44.84
30873;BME280;17579;42.690;2.586;2023-05-10T03:23:26;97225.28;;;14.90;45.14
30873;BME280;17579;42.690;2.586;2023-05-10T03:25:57;97231.44;;;14.91;45.06
30873;BME280;17579;42.690;2.586;2023-05-10T03:28:28;97239.13;;;14.86;45.17
30873;BME280;17579;42.690;2.586;2023-05-10T03:30:59;97240.94;;;14.85;45.28
30873;BME280;17579;42.690;2.586;2023-05-10T03:33:28;97235.97;;;14.82;45.46
30873;BME280;17579;42.690;2.586;2023-05-10T03:36:15;97228.84;;;14.75;45.79
30873;BME280;17579;42.690;2.586;2023-05-10T03:38:41;97237.97;;;14.80;45.44
30873;BME280;17579;42.690;2.586;2023-05-10T03:41:35;97251.81;;;14.76;45.57
30873;BME280;17579;42.690;2.586;2023-05-10T03:44:07;97251.63;;;14.77;45.34
30873;BME280;17579;42.690;2.586;2023-05-10T03:46:35;97251.97;;;14.74;45.72
30873;BME280;17579;42.690;2.586;2023-05-10T03:49:04;97251.81;;;14.76;45.38
30873;BME280;17579;42.690;2.586;2023-05-10T03:51:33;97261.78;;;14.73;45.46
30873;BME280;17579;42.690;2.586;2023-05-10T03:53:59;97264.44;;;14.73;45.16
30873;BME280;17579;42.690;2.586;2023-05-10T03:56:37;97264.28;;;14.75;45.21
30873;BME280;17579;42.690;2.586;2023-05-10T04:01:59;97287.06;;;14.78;45.05
30873;BME280;17579;42.690;2.586;2023-05-10T04:04:35;97286.59;;;14.74;44.85
30873;BME280;17579;42.690;2.586;2023-05-10T04:07:05;97281.28;;;14.74;45.18
30873;BME280;17579;42.690;2.586;2023-05-10T04:09:33;97288.41;;;14.73;44.94
30873;BME280;17579;42.690;2.586;2023-05-10T04:11:59;97288.75;;;14.70;44.84
30873;BME280;17579;42.690;2.586;2023-05-10T04:14:33;97295.06;;;14.69;45.01
30873;BME280;17579;42.690;2.586;2023-05-10T04:16:59;97289.75;;;14.69;44.53
30873;BME280;17579;42.690;2.586;2023-05-10T04:19:35;97300.56;;;14.68;44.49
30873;BME280;17579;42.690;2.586;2023-05-10T04:22:06;97311.22;;;14.68;44.89
30873;BME280;17579;42.690;2.586;2023-05-10T04:24:34;97317.56;;;14.67;44.58
30873;BME280;17579;42.690;2.586;2023-05-10T04:30:11;97308.19;;;14.71;44.27
30873;BME280;17579;42.690;2.586;2023-05-10T04:32:40;97306.75;;;14.68;44.25
30873;BME280;17579;42.690;2.586;2023-05-10T04:35:08;97314.56;;;14.70;44.09
30873;BME280;17579;42.690;2.586;2023-05-10T04:37:36;97311.03;;;14.69;43.93
30873;BME280;17579;42.690;2.586;2023-05-10T04:40:08;97313.22;;;14.66;44.09
30873;BME280;17579;42.690;2.586;2023-05-10T04:42:36;97314.22;;;14.65;44.19
30873;BME280;17579;42.690;2.586;2023-05-10T04:45:05;97308.91;;;14.65;44.35
30873;BME280;17579;42.690;2.586;2023-05-10T04:50:30;97310.91;;;14.63;43.98
30873;BME280;17579;42.690;2.586;2023-05-10T04:53:00;97307.88;;;14.58;43.79
30873;BME280;17579;42.690;2.586;2023-05-10T04:55:25;97313.88;;;14.60;43.79
30873;BME280;17579;42.690;2.586;2023-05-10T04:57:54;97298.72;;;14.60;43.38
30873;BME280;17579;42.690;2.586;2023-05-10T05:00:25;97309.38;;;14.60;43.17
30873;BME280;17579;42.690;2.586;2023-05-10T05:02:56;97317.88;;;14.64;43.15
30873;BME280;17579;42.690;2.586;2023-05-10T05:05:24;97323.34;;;14.70;43.16
30873;BME280;17579;42.690;2.586;2023-05-10T05:07:50;97320.34;;;14.73;42.60
30873;BME280;17579;42.690;2.586;2023-05-10T05:10:25;97330.00;;;14.75;43.50
30873;BME280;17579;42.690;2.586;2023-05-10T05:13:12;97343.31;;;14.83;42.61
30873;BME280;17579;42.690;2.586;2023-05-10T05:15:40;97345.63;;;14.86;42.51
30873;BME280;17579;42.690;2.586;2023-05-10T05:18:16;97349.44;;;14.92;42.59
30873;BME280;17579;42.690;2.586;2023-05-10T05:20:44;97347.09;;;14.97;42.63
30873;BME280;17579;42.690;2.586;2023-05-10T05:23:22;97361.72;;;15.01;42.68
30873;BME280;17579;42.690;2.586;2023-05-10T05:25:53;97364.22;;;15.02;43.05
30873;BME280;17579;42.690;2.586;2023-05-10T05:28:29;97365.06;;;15.03;42.87
30873;BME280;17579;42.690;2.586;2023-05-10T05:31:09;97382.84;;;15.11;42.83
30873;BME280;17579;42.690;2.586;2023-05-10T05:33:44;97386.31;;;15.28;42.96
30873;BME280;17579;42.690;2.586;2023-05-10T05:39:14;97383.91;;;15.49;42.86
30873;BME280;17579;42.690;2.586;2023-05-10T05:41:40;97388.22;;;15.50;43.22
30873;BME280;17579;42.690;2.586;2023-05-10T05:44:13;97386.94;;;15.38;43.69
30873;BME280;17579;42.690;2.586;2023-05-10T05:46:42;97394.47;;;15.26;44.12
30873;BME280;17579;42.690;2.586;2023-05-10T05:49:15;97395.81;;;15.22;44.92
30873;BME280;17579;42.690;2.586;2023-05-10T05:51:51;97396.50;;;15.16;45.25
30873;BME280;17579;42.690;2.586;2023-05-10T05:54:20;97396.34;;;15.09;45.56
30873;BME280;17579;42.690;2.586;2023-05-10T05:56:46;97397.34;;;15.08;45.76
30873;BME280;17579;42.690;2.586;2023-05-10T05:59:14;97406.50;;;15.05;45.86
30873;BME280;17579;42.690;2.586;2023-05-10T06:01:40;97402.84;;;15.06;45.97
30873;BME280;17579;42.690;2.586;2023-05-10T06:04:19;97402.72;;;15.00;46.00
30873;BME280;17579;42.690;2.586;2023-05-10T06:06:48;97416.50;;;15.03;45.89
30873;BME280;17579;42.690;2.586;2023-05-10T06:09:13;97421.28;;;15.24;46.13
30873;BME280;17579;42.690;2.586;2023-05-10T06:14:39;97422.53;;;15.53;45.17
30873;BME280;17579;42.690;2.586;2023-05-10T06:17:14;97414.06;;;15.89;44.75
30873;BME280;17579;42.690;2.586;2023-05-10T06:19:43;97426.00;;;16.02;44.69
30873;BME280;17579;42.690;2.586;2023-05-10T06:22:16;97416.31;;;16.32;43.86
30873;BME280;17579;42.690;2.586;2023-05-10T06:24:42;97426.41;;;16.45;43.97
30873;BME280;17579;42.690;2.586;2023-05-10T06:27:08;97425.34;;;16.69;43.69
30873;BME280;17579;42.690;2.586;2023-05-10T06:29:44;97431.53;;;16.93;42.98
30873;BME280;17579;42.690;2.586;2023-05-10T06:32:19;97404.19;;;17.21;42.64
30873;BME280;17579;42.690;2.586;2023-05-10T06:34:57;97430.97;;;17.36;42.19
30873;BME280;17579;42.690;2.586;2023-05-10T06:37:30;97427.72;;;17.55;42.05
30873;BME280;17579;42.690;2.586;2023-05-10T06:40:05;97423.28;;;17.77;41.85
30873;BME280;17579;42.690;2.586;2023-05-10T06:42:41;97424.09;;;17.93;40.54
30873;BME280;17579;42.690;2.586;2023-05-10T06:45:07;97430.63;;;18.05;39.42
30873;BME280;17579;42.690;2.586;2023-05-10T06:47:38;97436.78;;;18.21;39.65
30873;BME280;17579;42.690;2.586;2023-05-10T06:50:15;97431.00;;;18.39;38.93
30873;BME280;17579;42.690;2.586;2023-05-10T06:52:51;97424.22;;;18.64;39.30
30873;BME280;17579;42.690;2.586;2023-05-10T06:55:23;97434.31;;;18.84;38.59
30873;BME280;17579;42.690;2.586;2023-05-10T06:58:01;97428.44;;;18.95;37.71
30873;BME280;17579;42.690;2.586;2023-05-10T07:00:35;97425.38;;;18.98;37.59
30873;BME280;17579;42.690;2.586;2023-05-10T07:03:04;97426.34;;;19.19;37.19
30873;BME280;17579;42.690;2.586;2023-05-10T07:05:35;97431.75;;;19.26;37.20
30873;BME280;17579;42.690;2.586;2023-05-10T07:08:27;97444.22;;;19.40;37.85
30873;BME280;17579;42.690;2.586;2023-05-10T07:11:00;97432.00;;;19.66;37.14
30873;BME280;17579;42.690;2.586;2023-05-10T07:13:49;97442.94;;;19.71;37.12
30873;BME280;17579;42.690;2.586;2023-05-10T07:16:20;97442.94;;;20.06;36.53
30873;BME280;17579;42.690;2.586;2023-05-10T07:18:48;97419.44;;;20.21;36.10
30873;BME280;17579;42.690;2.586;2023-05-10T07:21:24;97434.16;;;20.39;35.16
30873;BME280;17579;42.690;2.586;2023-05-10T07:23:57;97418.25;;;20.51;35.75
30873;BME280;17579;42.690;2.586;2023-05-10T07:26:26;97420.13;;;20.64;34.85
30873;BME280;17579;42.690;2.586;2023-05-10T07:28:55;97429.66;;;20.73;35.06
30873;BME280;17579;42.690;2.586;2023-05-10T07:31:23;97422.44;;;20.67;34.49
30873;BME280;17579;42.690;2.586;2023-05-10T07:34:10;97414.53;;;20.52;34.45
30873;BME280;17579;42.690;2.586;2023-05-10T07:36:38;97446.16;;;20.43;33.82
30873;BME280;17579;42.690;2.586;2023-05-10T07:39:06;97443.47;;;20.50;33.82
30873;BME280;17579;42.690;2.586;2023-05-10T07:41:38;97445.13;;;20.64;32.86
30873;BME280;17579;42.690;2.586;2023-05-10T07:44:06;97438.78;;;20.72;33.26
30873;BME280;17579;42.690;2.586;2023-05-10T07:46:39;97435.47;;;20.90;33.36
30873;BME280;17579;42.690;2.586;2023-05-10T07:49:08;97448.09;;;21.03;32.99
30873;BME280;17579;42.690;2.586;2023-05-10T07:51:34;97441.25;;;21.00;31.92
30873;BME280;17579;42.690;2.586;2023-05-10T07:54:16;97442.28;;;20.86;33.10
30873;BME280;17579;42.690;2.586;2023-05-10T07:56:55;97434.22;;;21.13;32.62
30873;BME280;17579;42.690;2.586;2023-05-10T07:59:31;97438.75;;;21.19;32.03
30873;BME280;17579;42.690;2.586;2023-05-10T08:02:08;97414.78;;;21.17;32.11
30873;BME280;17579;42.690;2.586;2023-05-10T08:04:38;97426.13;;;21.26;31.67
30873;BME280;17579;42.690;2.586;2023-05-10T08:07:09;97428.78;;;21.46;31.84
30873;BME280;17579;42.690;2.586;2023-05-10T08:09:37;97425.63;;;21.76;31.33
30873;BME280;17579;42.690;2.586;2023-05-10T08:12:05;97425.25;;;21.66;30.78
30873;BME280;17579;42.690;2.586;2023-05-10T08:14:31;97427.09;;;21.78;30.69
30873;BME280;17579;42.690;2.586;2023-05-10T08:20:06;97413.13;;;21.95;30.70
30873;BME280;17579;42.690;2.586;2023-05-10T08:23:05;97418.50;;;22.02;31.57
30873;BME280;17579;42.690;2.586;2023-05-10T08:25:52;97419.88;;;22.11;31.47
30873;BME280;17579;42.690;2.586;2023-05-10T08:28:23;97426.59;;;22.47;30.23
30873;BME280;17579;42.690;2.586;2023-05-10T08:30:59;97419.78;;;22.31;29.76
30873;BME280;17579;42.690;2.586;2023-05-10T08:33:31;97416.59;;;22.09;30.54
30873;BME280;17579;42.690;2.586;2023-05-10T08:36:22;97419.78;;;21.92;30.50
30873;BME280;17579;42.690;2.586;2023-05-10T08:38:51;97421.25;;;21.88;31.18
30873;BME280;17579;42.690;2.586;2023-05-10T08:41:20;97425.41;;;21.77;30.58
30873;BME280;17579;42.690;2.586;2023-05-10T08:43:53;97412.66;;;21.59;30.73
30873;BME280;17579;42.690;2.586;2023-05-10T08:46:37;97418.28;;;21.31;31.42
30873;BME280;17579;42.690;2.586;2023-05-10T08:49:07;97411.66;;;21.20;32.14
30873;BME280;17579;42.690;2.586;2023-05-10T08:51:43;97426.38;;;21.18;32.15
30873;BME280;17579;42.690;2.586;2023-05-10T08:54:44;97404.03;;;21.04;32.13
30873;BME280;17579;42.690;2.586;2023-05-10T08:57:26;97409.81;;;21.07;31.30
30873;BME280;17579;42.690;2.586;2023-05-10T09:00:02;97403.63;;;21.00;30.43
30873;BME280;17579;42.690;2.586;2023-05-10T09:02:33;97388.31;;;20.74;30.77
30873;BME280;17579;42.690;2.586;2023-05-10T09:05:04;97385.19;;;20.64;31.32
30873;BME280;17579;42.690;2.586;2023-05-10T09:07:50;97396.97;;;20.63;31.65
30873;BME280;17579;42.690;2.586;2023-05-10T09:10:21;97384.97;;;20.45;31.92
30873;BME280;17579;42.690;2.586;2023-05-10T09:12:51;97388.47;;;20.32;31.77
30873;BME280;17579;42.690;2.586;2023-05-10T09:15:49;97396.72;;;20.17;32.06
30873;BME280;17579;42.690;2.586;2023-05-10T09:18:43;97397.91;;;20.08;31.83
30873;BME280;17579;42.690;2.586;2023-05-10T09:21:19;97392.53;;;20.08;32.98
30873;BME280;17579;42.690;2.586;2023-05-10T09:24:04;97392.59;;;20.21;32.83
30873;BME280;17579;42.690;2.586;2023-05-10T09:26:35;97396.31;;;20.27;33.04
30873;BME280;17579;42.690;2.586;2023-05-10T09:29:02;97382.47;;;20.37;32.54
30873;BME280;17579;42.690;2.586;2023-05-10T09:34:19;97395.66;;;20.18;32.61
30873;BME280;17579;42.690;2.586;2023-05-10T09:37:05;97392.13;;;20.11;33.08
30873;BME280;17579;42.690;2.586;2023-05-10T09:39:35;97383.91;;;20.19;32.61
30873;BME280;17579;42.690;2.586;2023-05-10T09:42:20;97394.22;;;20.22;32.82
30873;BME280;17579;42.690;2.586;2023-05-10T09:45:27;97399.38;;;20.24;32.54
30873;BME280;17579;42.690;2.586;2023-05-10T09:47:52;97395.28;;;20.21;31.91
30873;BME280;17579;42.690;2.586;2023-05-10T09:50:29;97389.47;;;20.18;32.24
30873;BME280;17579;42.690;2.586;2023-05-10T09:53:01;97389.47;;;20.18;32.22
30873;BME280;17579;42.690;2.586;2023-05-10T09:58:04;97375.63;;;20.21;31.65
30873;BME280;17579;42.690;2.586;2023-05-10T10:01:10;97371.50;;;20.18;32.02
30873;BME280;17579;42.690;2.586;2023-05-10T10:04:06;97367.41;;;20.42;32.54
30873;BME280;17579;42.690;2.586;2023-05-10T10:06:37;97371.53;;;20.58;32.18
30873;BME280;17579;42.690;2.586;2023-05-10T10:09:31;97373.84;;;20.62;32.67
30873;BME280;17579;42.690;2.586;2023-05-10T10:12:46;97365.78;;;20.62;32.54
30873;BME280;17579;42.690;2.586;2023-05-10T10:15:56;97367.44;;;20.56;33.12
30873;BME280;17579;42.690;2.586;2023-05-10T10:18:06;97355.84;;;20.49;33.23
30873;BME280;17579;42.690;2.586;2023-05-10T10:20:38;97353.13;;;20.35;33.98
30873;BME280;17579;42.690;2.586;2023-05-10T10:23:21;97353.94;;;20.22;34.29
30873;BME280;17579;42.690;2.586;2023-05-10T10:25:55;97345.69;;;20.24;34.72
30873;BME280;17579;42.690;2.586;2023-05-10T10:28:42;97327.50;;;20.06;34.85
30873;BME280;17579;42.690;2.586;2023-05-10T10:31:34;97346.69;;;20.03;35.47
30873;BME280;17579;42.690;2.586;2023-05-10T10:36:45;97344.84;;;20.10;34.94
30873;BME280;17579;42.690;2.586;2023-05-10T10:39:18;97334.31;;;20.08;34.25
30873;BME280;17579;42.690;2.586;2023-05-10T10:41:51;97332.66;;;20.14;34.81
30873;BME280;17579;42.690;2.586;2023-05-10T10:44:24;97331.44;;;20.30;35.17
30873;BME280;17579;42.690;2.586;2023-05-10T10:50:04;97333.31;;;20.43;34.36
30873;BME280;17579;42.690;2.586;2023-05-10T10:52:39;97340.75;;;20.61;34.32
30873;BME280;17579;42.690;2.586;2023-05-10T10:57:49;97330.03;;;20.54;34.22
30873;BME280;17579;42.690;2.586;2023-05-10T11:03:12;97300.03;;;20.44;33.94
30873;BME280;17579;42.690;2.586;2023-05-10T11:08:31;97319.03;;;20.29;34.35
30873;BME280;17579;42.690;2.586;2023-05-10T11:18:36;97318.44;;;20.27;34.07
30873;BME280;17579;42.690;2.586;2023-05-10T11:21:11;97296.72;;;20.22;34.14
30873;BME280;17579;42.690;2.586;2023-05-10T11:26:11;97299.81;;;20.25;33.19
30873;BME280;17579;42.690;2.586;2023-05-10T11:31:10;97307.06;;;20.52;32.95
30873;BME280;17579;42.690;2.586;2023-05-10T11:33:50;97294.25;;;20.67;32.71
30873;BME280;17579;42.690;2.586;2023-05-10T11:36:20;97300.66;;;20.73;31.85
30873;BME280;17579;42.690;2.586;2023-05-10T11:38:53;97313.44;;;20.64;31.91
30873;BME280;17579;42.690;2.586;2023-05-10T11:41:46;97314.94;;;20.73;32.53
30873;BME280;17579;42.690;2.586;2023-05-10T11:44:35;97323.59;;;20.96;31.13
30873;BME280;17579;42.690;2.586;2023-05-10T11:47:05;97320.03;;;21.02;30.70
30873;BME280;17579;42.690;2.586;2023-05-10T11:49:31;97309.50;;;21.07;30.56
30873;BME280;17579;42.690;2.586;2023-05-10T11:52:18;97320.25;;;21.14;30.93
30873;BME280;17579;42.690;2.586;2023-05-10T11:54:52;97320.63;;;21.31;31.03
30873;BME280;17579;42.690;2.586;2023-05-10T11:57:26;97327.81;;;21.43;30.50
30873;BME280;17579;42.690;2.586;2023-05-10T12:00:24;97311.41;;;21.58;30.08
30873;BME280;17579;42.690;2.586;2023-05-10T12:03:01;97317.97;;;21.69;28.34
30873;BME280;17579;42.690;2.586;2023-05-10T12:05:31;97317.19;;;21.62;28.48
30873;BME280;17579;42.690;2.586;2023-05-10T12:08:15;97314.91;;;21.66;28.69
30873;BME280;17579;42.690;2.586;2023-05-10T12:13:28;97328.34;;;21.72;28.38
30873;BME280;17579;42.690;2.586;2023-05-10T12:18:49;97306.81;;;22.04;29.92
30873;BME280;17579;42.690;2.586;2023-05-10T12:21:16;97298.97;;;22.35;29.08
30873;BME280;17579;42.690;2.586;2023-05-10T12:23:44;97291.97;;;22.52;29.19
30873;BME280;17579;42.690;2.586;2023-05-10T12:26:27;97291.78;;;22.72;29.11
30873;BME280;17579;42.690;2.586;2023-05-10T12:29:12;97285.53;;;22.97;29.44
30873;BME280;17579;42.690;2.586;2023-05-10T12:32:04;97288.31;;;23.27;28.88
30873;BME280;17579;42.690;2.586;2023-05-10T12:34:32;97293.47;;;23.47;29.13
30873;BME280;17579;42.690;2.586;2023-05-10T12:37:05;97282.78;;;23.59;28.96
30873;BME280;17579;42.690;2.586;2023-05-10T12:42:12;97268.34;;;23.96;28.20
30873;BME280;17579;42.690;2.586;2023-05-10T12:45:06;97256.06;;;24.24;28.09
30873;BME280;17579;42.690;2.586;2023-05-10T12:47:43;97218.03;;;24.25;27.23
30873;BME280;17579;42.690;2.586;2023-05-10T12:50:21;97203.81;;;24.30;27.42
30873;BME280;17579;42.690;2.586;2023-05-10T12:53:03;97181.38;;;24.41;27.18
30873;BME280;17579;42.690;2.586;2023-05-10T12:55:42;97173.59;;;24.45;26.92
30873;BME280;17579;42.690;2.586;2023-05-10T12:58:19;97185.69;;;24.30;26.92
30873;BME280;17579;42.690;2.586;2023-05-10T13:01:11;97219.78;;;24.19;26.75
30873;BME280;17579;42.690;2.586;2023-05-10T13:03:39;97218.94;;;24.19;26.77
30873;BME280;17579;42.690;2.586;2023-05-10T13:06:14;97207.47;;;24.35;26.70
30873;BME280;17579;42.690;2.586;2023-05-10T13:08:45;97198.63;;;24.28;26.60
30873;BME280;17579;42.690;2.586;2023-05-10T13:11:11;97217.41;;;24.35;26.66
30873;BME280;17579;42.690;2.586;2023-05-10T13:13:55;97184.06;;;24.41;27.16
30873;BME280;17579;42.690;2.586;2023-05-10T13:16:24;97192.03;;;24.48;26.90
30873;BME280;17579;42.690;2.586;2023-05-10T13:19:08;97191.34;;;24.52;26.68
30873;BME280;17579;42.690;2.586;2023-05-10T13:21:34;97177.84;;;24.52;27.31
30873;BME280;17579;42.690;2.586;2023-05-10T13:24:10;97196.53;;;24.54;27.50
30873;BME280;17579;42.690;2.586;2023-05-10T13:26:40;97200.78;;;24.62;27.36
30873;BME280;17579;42.690;2.586;2023-05-10T13:29:19;97202.03;;;24.71;27.18
30873;BME280;17579;42.690;2.586;2023-05-10T13:34:22;97182.63;;;24.86;27.00
30873;BME280;17579;42.690;2.586;2023-05-10T13:37:07;97178.97;;;24.92;27.09
30873;BME280;17579;42.690;2.586;2023-05-10T13:42:25;97189.44;;;24.88;26.49
30873;BME280;17579;42.690;2.586;2023-05-10T13:44:58;97185.22;;;24.93;27.41
30873;BME280;17579;42.690;2.586;2023-05-10T13:47:30;97179.75;;;25.04;26.88
30873;BME280;17579;42.690;2.586;2023-05-10T13:50:16;97183.16;;;25.12;26.26
30873;BME280;17579;42.690;2.586;2023-05-10T13:52:56;97190.19;;;25.13;26.01
30873;BME280;17579;42.690;2.586;2023-05-10T13:56:03;97185.22;;;24.93;26.04
30873;BME280;17579;42.690;2.586;2023-05-10T13:58:43;97188.59;;;24.88;25.86
30873;BME280;17579;42.690;2.586;2023-05-10T14:01:09;97189.53;;;24.94;25.27
30873;BME280;17579;42.690;2.586;2023-05-10T14:04:08;97198.00;;;24.97;25.66
30873;BME280;17579;42.690;2.586;2023-05-10T14:09:46;97174.06;;;24.77;24.89
30873;BME280;17579;42.690;2.586;2023-05-10T14:12:12;97189.69;;;24.51;24.28
30873;BME280;17579;42.690;2.586;2023-05-10T14:14:40;97180.78;;;24.27;24.63
30873;BME280;17579;42.690;2.586;2023-05-10T14:17:09;97182.16;;;23.94;25.18
30873;BME280;17579;42.690;2.586;2023-05-10T14:19:34;97188.50;;;23.58;25.52
30873;BME280;17579;42.690;2.586;2023-05-10T14:25:15;97186.00;;;23.07;26.51
30873;BME280;17579;42.690;2.586;2023-05-10T14:27:44;97176.13;;;23.01;26.98
30873;BME280;17579;42.690;2.586;2023-05-10T14:30:30;97175.28;;;22.89;27.16
30873;BME280;17579;42.690;2.586;2023-05-10T14:32:59;97164.09;;;22.85;27.62
30873;BME280;17579;42.690;2.586;2023-05-10T14:35:30;97155.72;;;22.75;28.02
30873;BME280;17579;42.690;2.586;2023-05-10T14:37:56;97156.63;;;22.69;28.52
30873;BME280;17579;42.690;2.586;2023-05-10T14:40:51;97141.19;;;22.57;28.54
30873;BME280;17579;42.690;2.586;2023-05-10T14:43:28;97129.81;;;22.55;28.63
30873;BME280;17579;42.690;2.586;2023-05-10T14:46:06;97140.59;;;22.55;29.47
30873;BME280;17579;42.690;2.586;2023-05-10T14:48:35;97133.13;;;22.57;30.38
30873;BME280;17579;42.690;2.586;2023-05-10T14:51:08;97118.03;;;22.49;29.61
30873;BME280;17579;42.690;2.586;2023-05-10T14:53:58;97121.81;;;22.48;30.45
30873;BME280;17579;42.690;2.586;2023-05-10T14:56:27;97105.09;;;22.58;31.13
30873;BME280;17579;42.690;2.586;2023-05-10T14:59:14;97108.16;;;22.62;30.04
30873;BME280;17579;42.690;2.586;2023-05-10T15:01:45;97073.19;;;22.55;30.11
30873;BME280;17579;42.690;2.586;2023-05-10T15:04:13;97089.53;;;22.42;29.93
30873;BME280;17579;42.690;2.586;2023-05-10T15:06:54;97094.81;;;22.30;30.14
30873;BME280;17579;42.690;2.586;2023-05-10T15:09:24;97078.94;;;22.22;30.79
30873;BME280;17579;42.690;2.586;2023-05-10T15:11:55;97084.09;;;22.05;31.35
30873;BME280;17579;42.690;2.586;2023-05-10T15:14:30;97093.06;;;21.98;31.37
30873;BME280;17579;42.690;2.586;2023-05-10T15:17:06;97085.00;;;21.98;31.40
30873;BME280;17579;42.690;2.586;2023-05-10T15:19:36;97099.53;;;21.91;31.23